createdAt,value
2022-09-13T00:02:27.464Z,16.80
2022-09-13T00:04:58.569Z,16.80
2022-09-13T00:07:29.405Z,16.90
2022-09-13T00:10:00.246Z,16.90
2022-09-13T00:12:31.145Z,16.90
2022-09-13T00:15:02.988Z,16.90
2022-09-13T00:17:33.932Z,17.00
2022-09-13T00:20:05.478Z,16.90
2022-09-13T00:22:37.340Z,16.90
2022-09-13T00:25:08.810Z,16.80
2022-09-13T00:27:39.698Z,16.60
2022-09-13T00:30:12.622Z,16.60
2022-09-13T00:32:43.518Z,16.50
2022-09-13T00:35:14.506Z,16.50
2022-09-13T00:37:45.395Z,16.50
2022-09-13T00:40:16.663Z,16.40
2022-09-13T00:42:47.682Z,16.40
2022-09-13T00:45:19.243Z,16.40
2022-09-13T00:47:59.252Z,16.40
2022-09-13T00:50:46.039Z,16.50
2022-09-13T00:53:25.164Z,16.50
2022-09-13T00:56:05.722Z,16.50
2022-09-13T00:59:08.840Z,16.50
2022-09-13T01:01:53.591Z,16.40
2022-09-13T01:04:27.901Z,16.40
2022-09-13T01:07:08.802Z,16.40
2022-09-13T01:09:44.177Z,16.30
2022-09-13T01:12:48.520Z,16.20
2022-09-13T01:15:19.482Z,16.20
2022-09-13T01:17:54.743Z,16.20
2022-09-13T01:20:46.305Z,16.20
2022-09-13T01:23:57.561Z,16.20
2022-09-13T01:26:43.310Z,16.30
2022-09-13T01:29:37.119Z,16.20
2022-09-13T01:32:31.339Z,16.20
2022-09-13T01:35:05.087Z,16.10
2022-09-13T01:37:55.055Z,16.10
2022-09-13T01:41:11.037Z,16.00
2022-09-13T01:44:12.328Z,16.00
2022-09-13T01:47:45.569Z,15.90
2022-09-13T01:50:42.331Z,16.00
2022-09-13T01:53:37.117Z,15.90
2022-09-13T01:56:24.619Z,15.90
2022-09-13T01:59:41.845Z,15.90
2022-09-13T02:02:21.585Z,15.90
2022-09-13T02:05:01.540Z,15.80
2022-09-13T02:07:41.044Z,15.80
2022-09-13T02:10:34.250Z,15.80
2022-09-13T02:13:13.434Z,15.80
2022-09-13T02:15:49.212Z,15.90
2022-09-13T02:18:36.086Z,15.90
2022-09-13T02:21:22.699Z,16.00
2022-09-13T02:24:08.533Z,16.00
2022-09-13T02:26:42.083Z,16.00
2022-09-13T02:29:18.231Z,16.00
2022-09-13T02:32:04.598Z,16.10
2022-09-13T02:34:43.319Z,16.20
2022-09-13T02:37:15.021Z,16.10
2022-09-13T02:39:57.629Z,16.20
2022-09-13T02:43:19.232Z,16.10
2022-09-13T02:46:10.097Z,16.20
2022-09-13T02:49:20.186Z,16.10
2022-09-13T02:52:43.365Z,16.00
2022-09-13T02:55:16.950Z,15.90
2022-09-13T02:58:15.152Z,15.80
2022-09-13T03:00:47.280Z,15.70
2022-09-13T03:03:18.218Z,15.70
2022-09-13T03:05:49.363Z,15.60
2022-09-13T03:08:22.295Z,15.80
2022-09-13T03:11:16.003Z,16.10
2022-09-13T03:14:42.335Z,16.00
2022-09-13T03:17:25.230Z,15.90
2022-09-13T03:20:12.644Z,15.90
2022-09-13T03:23:10.976Z,15.90
2022-09-13T03:26:07.890Z,15.80
2022-09-13T03:28:51.070Z,15.80
2022-09-13T03:31:37.267Z,15.80
2022-09-13T03:34:17.519Z,15.70
2022-09-13T03:36:56.399Z,15.60
2022-09-13T03:39:57.922Z,15.70
2022-09-13T03:42:50.616Z,15.90
2022-09-13T03:45:27.500Z,15.80
2022-09-13T03:47:59.078Z,15.80
2022-09-13T03:50:31.750Z,15.80
2022-09-13T03:53:11.603Z,15.80
2022-09-13T03:55:43.803Z,15.60
2022-09-13T03:58:19.022Z,15.50
2022-09-13T04:00:50.150Z,15.40
2022-09-13T04:03:21.362Z,15.30
2022-09-13T04:05:52.200Z,15.40
2022-09-13T04:08:23.149Z,15.40
2022-09-13T04:10:54.569Z,15.30
2022-09-13T04:13:25.491Z,15.30
2022-09-13T04:16:02.456Z,15.20
2022-09-13T04:18:34.064Z,15.10
2022-09-13T04:21:05.477Z,15.10
2022-09-13T04:23:36.518Z,15.10
2022-09-13T04:26:07.392Z,15.10
2022-09-13T04:28:38.273Z,15.30
2022-09-13T04:31:09.206Z,15.20
2022-09-13T04:33:41.258Z,15.20
2022-09-13T04:36:12.132Z,15.20
2022-09-13T04:38:43.139Z,15.20
2022-09-13T04:41:14.124Z,15.40
2022-09-13T04:43:50.110Z,15.50
2022-09-13T04:46:21.123Z,15.50
2022-09-13T04:48:52.547Z,15.50
2022-09-13T04:51:23.629Z,15.40
2022-09-13T04:53:56.008Z,15.30
2022-09-13T04:56:27.884Z,15.30
2022-09-13T04:58:58.740Z,15.10
2022-09-13T05:01:30.031Z,15.20
2022-09-13T05:04:00.952Z,15.10
2022-09-13T05:06:31.817Z,15.20
2022-09-13T05:09:04.055Z,15.40
2022-09-13T05:11:34.952Z,15.50
2022-09-13T05:14:06.472Z,15.70
2022-09-13T05:16:37.381Z,15.70
2022-09-13T05:19:09.762Z,15.70
2022-09-13T05:21:40.682Z,15.60
2022-09-13T05:24:11.940Z,15.40
2022-09-13T05:26:42.971Z,15.40
2022-09-13T05:29:13.986Z,15.50
2022-09-13T05:31:45.052Z,15.50
2022-09-13T05:34:20.050Z,15.50
2022-09-13T05:36:54.229Z,15.60
2022-09-13T05:39:34.041Z,15.60
2022-09-13T05:42:14.710Z,15.50
2022-09-13T05:44:46.117Z,15.40
2022-09-13T05:47:17.117Z,15.60
2022-09-13T05:50:08.842Z,15.70
2022-09-13T05:52:38.951Z,15.60
2022-09-13T05:55:10.197Z,15.60
2022-09-13T05:57:41.103Z,15.40
2022-09-13T06:00:13.177Z,15.20
2022-09-13T06:02:44.178Z,15.10
2022-09-13T06:05:15.324Z,15.20
2022-09-13T06:07:46.643Z,15.30
2022-09-13T06:10:18.123Z,15.50
2022-09-13T06:12:50.850Z,15.50
2022-09-13T06:15:21.703Z,15.60
2022-09-13T06:17:52.579Z,15.80
2022-09-13T06:20:23.471Z,15.90
2022-09-13T06:22:54.345Z,15.90
2022-09-13T06:25:25.379Z,15.90
2022-09-13T06:27:56.220Z,15.90
2022-09-13T06:30:27.141Z,16.00
2022-09-13T06:32:58.121Z,16.10
2022-09-13T06:35:28.964Z,16.00
2022-09-13T06:37:59.851Z,16.10
2022-09-13T06:40:30.824Z,16.00
2022-09-13T06:43:01.994Z,16.00
2022-09-13T06:45:32.825Z,15.70
2022-09-13T06:48:04.159Z,15.60
2022-09-13T06:50:35.083Z,15.70
2022-09-13T06:53:06.039Z,15.80
2022-09-13T06:55:37.050Z,16.00
2022-09-13T06:58:07.879Z,16.00
2022-09-13T07:00:38.899Z,16.10
2022-09-13T07:03:09.778Z,16.20
2022-09-13T07:05:40.678Z,16.20
2022-09-13T07:08:11.542Z,16.30
2022-09-13T07:10:42.413Z,16.20
2022-09-13T07:13:13.362Z,16.30
2022-09-13T07:15:44.287Z,16.50
2022-09-13T07:18:15.137Z,16.70
2022-09-13T07:20:45.999Z,16.80
2022-09-13T07:23:16.868Z,16.80
2022-09-13T07:25:55.996Z,17.00
2022-09-13T07:28:27.545Z,17.10
2022-09-13T07:31:36.521Z,17.20
2022-09-13T07:34:22.675Z,17.30
2022-09-13T07:36:54.372Z,17.20
2022-09-13T07:39:25.295Z,17.10
2022-09-13T07:41:56.164Z,17.20
2022-09-13T07:44:27.085Z,17.30
2022-09-13T07:46:57.940Z,17.40
2022-09-13T07:49:28.825Z,17.50
2022-09-13T07:51:59.661Z,17.70
2022-09-13T07:54:30.966Z,17.80
2022-09-13T07:57:01.837Z,17.90
2022-09-13T07:59:32.760Z,18.00
2022-09-13T08:02:03.695Z,18.20
2022-09-13T08:04:36.409Z,18.40
2022-09-13T08:07:07.508Z,18.50
2022-09-13T08:09:38.381Z,18.70
2022-09-13T08:12:09.236Z,18.90
2022-09-13T08:14:40.113Z,19.00
2022-09-13T08:17:10.959Z,19.00
2022-09-13T08:19:41.983Z,19.10
2022-09-13T08:22:12.886Z,19.20
2022-09-13T08:24:43.754Z,19.30
2022-09-13T08:27:14.675Z,19.40
2022-09-13T08:29:45.710Z,19.60
2022-09-13T08:32:16.608Z,19.60
2022-09-13T08:34:47.490Z,19.60
2022-09-13T08:37:19.545Z,19.60
2022-09-13T08:39:50.451Z,19.70
2022-09-13T08:42:47.088Z,19.80
2022-09-13T08:45:18.247Z,19.90
2022-09-13T08:48:12.347Z,20.00
2022-09-13T08:50:45.138Z,20.10
2022-09-13T08:53:28.723Z,20.10
2022-09-13T08:56:57.360Z,20.30
2022-09-13T08:59:37.530Z,20.40
2022-09-13T09:02:47.801Z,20.60
2022-09-13T09:05:23.860Z,20.70
2022-09-13T09:08:38.301Z,20.90
2022-09-13T09:11:21.653Z,21.10
2022-09-13T09:14:02.062Z,21.30
2022-09-13T09:16:39.011Z,21.40
2022-09-13T09:19:34.584Z,21.50
2022-09-13T09:22:18.731Z,21.60
2022-09-13T09:24:55.203Z,21.80
2022-09-13T09:27:27.371Z,21.90
2022-09-13T09:29:58.806Z,21.90
2022-09-13T09:32:54.347Z,22.10
2022-09-13T09:35:28.202Z,22.30
2022-09-13T09:38:14.763Z,22.60
2022-09-13T09:40:45.928Z,22.70
2022-09-13T09:43:33.401Z,22.90
2022-09-13T09:46:07.329Z,22.80
2022-09-13T09:48:46.326Z,22.90
2022-09-13T09:51:20.164Z,23.10
2022-09-13T09:54:01.955Z,23.00
2022-09-13T09:56:34.542Z,23.10
2022-09-13T09:59:25.784Z,23.20
2022-09-13T10:01:57.849Z,23.40
2022-09-13T10:04:29.855Z,23.40
2022-09-13T10:07:21.796Z,23.50
2022-09-13T10:10:03.974Z,23.60
2022-09-13T10:12:39.781Z,23.60
2022-09-13T10:15:20.873Z,23.70
2022-09-13T10:18:40.377Z,23.70
2022-09-13T10:21:10.802Z,23.80
2022-09-13T10:23:41.665Z,24.00
2022-09-13T10:26:22.307Z,24.10
2022-09-13T10:29:13.732Z,24.10
2022-09-13T10:31:48.218Z,24.10
2022-09-13T10:34:30.035Z,24.10
2022-09-13T10:37:14.811Z,24.10
2022-09-13T10:40:19.139Z,24.20
2022-09-13T10:42:59.701Z,24.10
2022-09-13T10:45:31.931Z,24.30
2022-09-13T10:48:12.441Z,24.60
2022-09-13T10:51:05.184Z,24.70
2022-09-13T10:53:41.866Z,25.10
2022-09-13T10:56:23.576Z,25.80
2022-09-13T10:59:29.586Z,26.80
2022-09-13T11:03:08.980Z,27.30
2022-09-13T11:05:57.971Z,27.60
2022-09-13T11:09:02.160Z,28.30
2022-09-13T11:12:00.742Z,28.60
2022-09-13T11:15:00.169Z,29.40
2022-09-13T11:17:55.930Z,29.70
2022-09-13T11:20:57.656Z,29.60
2022-09-13T11:23:41.329Z,29.10
2022-09-13T11:26:46.739Z,28.90
2022-09-13T11:29:46.932Z,28.70
2022-09-13T11:32:49.940Z,28.50
2022-09-13T11:36:11.882Z,28.50
2022-09-13T11:39:26.264Z,28.60
2022-09-13T11:42:05.819Z,28.80
2022-09-13T11:44:54.806Z,29.20
2022-09-13T11:47:38.103Z,29.00
2022-09-13T11:50:21.562Z,28.70
2022-09-13T11:53:30.361Z,28.60
2022-09-13T11:56:08.951Z,28.50
2022-09-13T11:58:56.837Z,28.50
2022-09-13T12:01:36.349Z,28.50
2022-09-13T12:04:18.218Z,28.70
2022-09-13T12:06:57.617Z,28.90
2022-09-13T12:09:38.533Z,28.90
2022-09-13T12:12:14.077Z,29.00
2022-09-13T12:15:00.868Z,29.00
2022-09-13T12:17:44.092Z,29.20
2022-09-13T12:20:39.815Z,29.40
2022-09-13T12:23:25.291Z,30.00
2022-09-13T12:26:21.928Z,29.90
2022-09-13T12:28:58.480Z,29.80
2022-09-13T12:31:32.847Z,29.60
2022-09-13T12:34:08.209Z,29.40
2022-09-13T12:37:21.515Z,29.40
2022-09-13T12:40:12.205Z,29.50
2022-09-13T12:42:56.268Z,29.30
2022-09-13T12:45:27.140Z,29.30
2022-09-13T12:48:25.712Z,29.40
2022-09-13T12:51:15.702Z,29.60
2022-09-13T12:54:30.150Z,29.80
2022-09-13T12:57:43.414Z,29.80
2022-09-13T13:00:28.404Z,29.80
2022-09-13T13:03:12.073Z,30.10
2022-09-13T13:05:48.629Z,29.80
2022-09-13T13:08:22.223Z,29.80
2022-09-13T13:11:14.451Z,29.80
2022-09-13T13:13:57.727Z,30.00
2022-09-13T13:16:40.658Z,30.30
2022-09-13T13:19:32.861Z,30.60
2022-09-13T13:22:44.315Z,30.40
2022-09-13T13:25:37.821Z,30.50
2022-09-13T13:28:50.599Z,30.50
2022-09-13T13:31:24.586Z,30.40
2022-09-13T13:34:11.066Z,30.20
2022-09-13T13:36:41.988Z,30.20
2022-09-13T13:39:25.090Z,30.00
2022-09-13T13:42:02.289Z,30.00
2022-09-13T13:44:33.093Z,30.20
2022-09-13T13:47:09.787Z,29.90
2022-09-13T13:49:40.781Z,30.00
2022-09-13T13:52:11.893Z,30.20
2022-09-13T13:54:43.101Z,30.40
2022-09-13T13:58:01.537Z,30.60
2022-09-13T14:00:35.560Z,30.50
2022-09-13T14:03:48.016Z,30.70
2022-09-13T14:06:42.663Z,30.70
2022-09-13T14:09:53.007Z,30.70
2022-09-13T14:12:52.080Z,30.40
2022-09-13T14:15:47.387Z,30.30
2022-09-13T14:19:07.473Z,30.00
2022-09-13T14:21:38.513Z,30.00
2022-09-13T14:24:24.471Z,30.00
2022-09-13T14:26:59.724Z,30.10
2022-09-13T14:29:30.947Z,30.00
2022-09-13T14:32:07.124Z,29.80
2022-09-13T14:34:39.193Z,29.80
2022-09-13T14:37:31.945Z,29.90
2022-09-13T14:40:09.061Z,29.90
2022-09-13T14:42:46.904Z,29.80
2022-09-13T14:45:24.608Z,29.70
2022-09-13T14:48:27.649Z,29.70
2022-09-13T14:51:24.044Z,29.70
2022-09-13T14:54:00.441Z,29.70
2022-09-13T14:56:37.110Z,29.70
2022-09-13T14:59:21.872Z,29.70
2022-09-13T15:01:53.242Z,29.70
2022-09-13T15:04:24.722Z,29.80
2022-09-13T15:07:36.869Z,29.80
2022-09-13T15:10:26.236Z,29.70
2022-09-13T15:13:06.119Z,29.70
2022-09-13T15:15:45.353Z,29.60
2022-09-13T15:18:23.842Z,29.40
2022-09-13T15:21:02.825Z,29.20
2022-09-13T15:23:40.533Z,29.10
2022-09-13T15:26:25.686Z,29.10
2022-09-13T15:29:05.625Z,28.90
2022-09-13T15:31:36.540Z,28.70
2022-09-13T15:34:22.332Z,28.60
2022-09-13T15:37:07.066Z,28.50
2022-09-13T15:39:48.472Z,28.40
2022-09-13T15:42:19.464Z,28.30
2022-09-13T15:44:50.286Z,28.30
2022-09-13T15:47:21.683Z,28.20
2022-09-13T15:49:52.876Z,28.20
2022-09-13T15:52:24.049Z,28.10
2022-09-13T15:54:54.872Z,27.90
2022-09-13T15:57:29.110Z,27.90
2022-09-13T16:00:05.580Z,27.80
2022-09-13T16:02:37.441Z,27.70
2022-09-13T16:05:08.780Z,27.60
2022-09-13T16:07:40.879Z,27.50
2022-09-13T16:10:20.322Z,27.40
2022-09-13T16:12:51.627Z,27.40
2022-09-13T16:15:22.616Z,27.30
2022-09-13T16:17:53.423Z,27.30
2022-09-13T16:20:24.431Z,27.20
2022-09-13T16:22:55.332Z,27.20
2022-09-13T16:25:26.307Z,27.10
2022-09-13T16:27:57.517Z,27.10
2022-09-13T16:30:30.553Z,27.00
2022-09-13T16:33:01.598Z,26.90
2022-09-13T16:35:33.001Z,26.90
2022-09-13T16:38:03.846Z,26.80
2022-09-13T16:40:35.042Z,26.80
2022-09-13T16:43:06.039Z,26.70
2022-09-13T16:45:41.368Z,26.70
2022-09-13T16:48:12.543Z,26.70
2022-09-13T16:50:43.447Z,26.60
2022-09-13T16:53:14.279Z,26.60
2022-09-13T16:55:45.992Z,26.50
2022-09-13T16:58:16.831Z,26.50
2022-09-13T17:00:47.838Z,26.40
2022-09-13T17:03:18.661Z,26.40
2022-09-13T17:06:04.505Z,26.30
2022-09-13T17:08:37.977Z,26.20
2022-09-13T17:11:13.090Z,26.10
2022-09-13T17:13:44.343Z,26.10
2022-09-13T17:16:34.512Z,26.00
2022-09-13T17:19:15.137Z,25.90
2022-09-13T17:21:46.751Z,25.80
2022-09-13T17:24:18.424Z,25.70
2022-09-13T17:26:49.362Z,25.60
2022-09-13T17:29:20.783Z,25.60
2022-09-13T17:31:52.851Z,25.60
2022-09-13T17:34:24.151Z,25.50
2022-09-13T17:36:55.220Z,25.40
2022-09-13T17:39:26.142Z,25.30
2022-09-13T17:41:57.059Z,25.30
2022-09-13T17:44:27.924Z,25.30
2022-09-13T17:46:58.874Z,25.20
2022-09-13T17:49:29.779Z,25.10
2022-09-13T17:52:02.471Z,25.00
2022-09-13T17:54:33.473Z,25.00
2022-09-13T17:57:04.500Z,24.90
2022-09-13T17:59:35.351Z,24.80
2022-09-13T18:02:06.770Z,24.70
2022-09-13T18:04:37.637Z,24.70
2022-09-13T18:07:08.499Z,24.50
2022-09-13T18:09:40.588Z,24.50
2022-09-13T18:12:12.199Z,24.40
2022-09-13T18:14:43.030Z,24.40
2022-09-13T18:17:14.027Z,24.30
2022-09-13T18:19:46.661Z,24.30
2022-09-13T18:22:17.999Z,24.30
2022-09-13T18:24:48.857Z,24.20
2022-09-13T18:27:19.773Z,24.10
2022-09-13T18:29:50.633Z,24.10
2022-09-13T18:32:21.505Z,24.10
2022-09-13T18:34:52.522Z,24.00
2022-09-13T18:37:23.411Z,24.00
2022-09-13T18:39:54.388Z,23.90
2022-09-13T18:42:25.320Z,23.90
2022-09-13T18:44:56.169Z,23.80
2022-09-13T18:47:27.045Z,23.80
2022-09-13T18:49:57.869Z,23.70
2022-09-13T18:52:28.744Z,23.70
2022-09-13T18:54:59.613Z,23.60
2022-09-13T18:57:30.611Z,23.60
2022-09-13T19:00:03.402Z,23.70
2022-09-13T19:02:34.482Z,23.90
2022-09-13T19:05:07.100Z,24.10
2022-09-13T19:07:40.661Z,24.20
2022-09-13T19:10:15.922Z,24.10
2022-09-13T19:12:47.046Z,24.10
2022-09-13T19:15:17.895Z,24.00
2022-09-13T19:17:48.783Z,23.90
2022-09-13T19:20:22.666Z,23.70
2022-09-13T19:22:53.799Z,23.60
2022-09-13T19:25:27.741Z,23.50
2022-09-13T19:27:58.582Z,23.50
2022-09-13T19:30:29.438Z,23.40
2022-09-13T19:33:00.330Z,23.30
2022-09-13T19:35:31.186Z,23.30
2022-09-13T19:38:02.225Z,23.20
2022-09-13T19:40:34.156Z,23.20
2022-09-13T19:43:05.317Z,23.20
2022-09-13T19:45:36.182Z,23.20
2022-09-13T19:51:10.336Z,23.00
2022-09-13T19:53:56.503Z,23.00
2022-09-13T19:56:37.971Z,23.00
2022-09-13T19:59:13.515Z,23.00
2022-09-13T20:01:46.750Z,22.90
2022-09-13T20:04:20.954Z,22.90
2022-09-13T20:06:52.428Z,22.90
2022-09-13T20:09:23.318Z,22.80
2022-09-13T20:12:00.225Z,22.80
2022-09-13T20:14:32.543Z,22.70
2022-09-13T20:17:04.281Z,22.70
2022-09-13T20:19:46.408Z,22.70
2022-09-13T20:22:20.681Z,22.60
2022-09-13T20:24:51.577Z,22.60
2022-09-13T20:27:22.514Z,22.60
2022-09-13T20:29:54.271Z,22.60
2022-09-13T20:32:25.288Z,22.60
2022-09-13T20:34:56.183Z,22.50
2022-09-13T20:37:27.608Z,22.50
2022-09-13T20:40:03.114Z,22.40
2022-09-13T20:42:34.450Z,22.40
2022-09-13T20:45:06.141Z,22.30
2022-09-13T20:47:37.063Z,22.20
2022-09-13T20:50:08.447Z,22.30
2022-09-13T20:52:39.334Z,22.40
2022-09-13T20:55:10.287Z,22.40
2022-09-13T20:57:41.687Z,22.40
2022-09-13T21:00:13.163Z,22.40
2022-09-13T21:02:44.323Z,22.40
2022-09-13T21:05:16.130Z,22.40
2022-09-13T21:08:05.500Z,22.30
2022-09-13T21:10:36.396Z,22.10
2022-09-13T21:13:09.674Z,22.20
2022-09-13T21:15:42.218Z,22.20
2022-09-13T21:18:13.767Z,22.10
2022-09-13T21:20:44.681Z,22.00
2022-09-13T21:23:15.553Z,22.00
2022-09-13T21:25:46.443Z,22.00
2022-09-13T21:28:18.689Z,22.10
2022-09-13T21:31:06.050Z,22.00
2022-09-13T21:33:37.105Z,21.90
2022-09-13T21:36:10.027Z,21.80
2022-09-13T21:38:41.075Z,21.70
2022-09-13T21:41:18.254Z,21.70
2022-09-13T21:43:49.841Z,21.70
2022-09-13T21:46:30.001Z,21.60
2022-09-13T21:49:05.166Z,21.70
2022-09-13T21:51:41.486Z,21.80
2022-09-13T21:54:16.683Z,21.70
2022-09-13T21:56:54.123Z,21.50
2022-09-13T21:59:25.145Z,21.50
2022-09-13T22:01:56.074Z,21.50
2022-09-13T22:04:27.648Z,21.50
2022-09-13T22:06:58.623Z,21.50
2022-09-13T22:09:29.653Z,21.50
2022-09-13T22:12:00.982Z,21.50
2022-09-13T22:14:32.001Z,21.40
2022-09-13T22:17:02.958Z,21.40
2022-09-13T22:19:33.969Z,21.50
2022-09-13T22:22:04.842Z,21.80
2022-09-13T22:24:36.540Z,21.90
2022-09-13T22:27:08.441Z,21.80
2022-09-13T22:29:40.462Z,21.70
2022-09-13T22:32:11.284Z,21.60
2022-09-13T22:34:42.360Z,21.50
2022-09-13T22:37:13.251Z,21.40
2022-09-13T22:39:44.143Z,21.40
2022-09-13T22:42:15.051Z,21.40
2022-09-13T22:44:46.045Z,21.40
2022-09-13T22:47:16.856Z,21.40
2022-09-13T22:49:47.729Z,21.40
2022-09-13T22:52:18.662Z,21.50
2022-09-13T22:54:50.887Z,21.50
2022-09-13T22:57:21.695Z,21.50
2022-09-13T22:59:52.734Z,21.50
2022-09-13T23:02:23.601Z,21.60
2022-09-13T23:04:54.593Z,21.50
2022-09-13T23:07:25.450Z,21.50
2022-09-13T23:09:56.302Z,21.50
2022-09-13T23:12:29.747Z,21.40
2022-09-13T23:15:00.620Z,21.20
2022-09-13T23:17:31.737Z,21.10
2022-09-13T23:20:03.280Z,21.00
2022-09-13T23:22:34.118Z,21.00
2022-09-13T23:25:05.644Z,20.90
2022-09-13T23:27:36.730Z,20.80
2022-09-13T23:30:08.408Z,20.80
2022-09-13T23:32:39.306Z,20.80
2022-09-13T23:35:10.270Z,20.80
2022-09-13T23:37:41.207Z,20.80
2022-09-13T23:40:12.161Z,20.80
2022-09-13T23:42:43.192Z,20.90
2022-09-13T23:45:14.308Z,20.70
2022-09-13T23:47:45.180Z,20.70
2022-09-13T23:50:16.324Z,20.60
2022-09-13T23:52:47.176Z,20.60
2022-09-13T23:55:18.101Z,20.60
2022-09-13T23:57:48.942Z,20.60
